Flight Track Log - Related Links

Times and Time Zones

All times are in EDT time to prevent confusion due to time zone crossing. See the ASQ5941 flight status page for this flight to view local times or setup timezone preferences in your user account.

Time Position Orientation Groundspeed Altitude Reporting Facility
EDT Latitude Longitude Course Direction KTS MPH feet Rate Location/Type
Sun 05:25:03 PM 41.2567 -75.8022 307° West 211 243 4,500  Level New York Center
Sun 05:26:00 PM 41.3833 -75.8786 270° West  Level FlightAware Approximate
Sun 05:26:04 PM 41.3028 -75.8442 326° Northwest 241 277 6,300  Level New York Center
Sun 05:27:00 PM 41.4408 -75.9648 304° West  Level FlightAware Approximate
Sun 05:27:04 PM 41.3686 -75.8603 350° North 261 300 7,500  Level New York Center
Sun 05:28:00 PM 41.4957 -76.0553 315° West  Level FlightAware Approximate
Sun 05:28:05 PM 41.4453 -75.9158 331° Northwest 278 320 9,700  Level New York Center
Sun 05:29:00 PM 41.5552 -76.1412 312° West  Level FlightAware Approximate
Sun 05:29:03 PM 41.5039 -75.9564 333° Northwest 290 334 11,000  Level New York Center
Sun 05:30:00 PM 41.6109 -76.2315 307° West  Level FlightAware Approximate
Sun 05:30:03 PM 41.5908 -76.0158 333° Northwest 313 360 12,700  Level New York Center
Sun 05:31:04 PM 41.6564 -76.0878 321° Northwest 319 367 14,200 1,587 Climbing New York Center
Sun 05:32:04 PM 41.7253 -76.1764 316° Northwest 319 367 15,900 1,600 Climbing New York Center
Sun 05:33:04 PM 41.7686 -76.2775 300° West 308 354 17,400 1,412 Climbing New York Center
Sun 05:34:03 PM 41.8097 -76.3781 299° West 308 354 18,700 1,210 Climbing New York Center
Sun 05:35:03 PM 41.8506 -76.4819 298° West 313 360 19,800 1,131 Climbing New York Center
Sun 05:36:05 PM 41.8931 -76.5914 298° West 319 367 21,000 1,082 Climbing New York Center
Sun 05:37:05 PM 41.9231 -76.7028 290° West 319 367 22,000 -232 Climbing New York Center
Sun 05:40:24 PM 42.0344 -77.1750 288° West 429 494 20,000 -463 Descending Cleveland Center
Sun 05:41:24 PM 42.0681 -77.3217 287° West 429 494 20,000  Level Cleveland Center
Sun 05:42:24 PM 42.1019 -77.4906 285° West 429 494 20,000  Level Cleveland Center
Sun 05:43:24 PM 42.1258 -77.6128 285° West 429 494 20,000  Level Cleveland Center
Sun 05:44:24 PM 42.1717 -77.7786 291° West 458 527 20,000  Level Cleveland Center
Sun 05:45:24 PM 42.1836 -77.9211 277° West 407 468 20,000  Level Cleveland Center
Sun 05:46:24 PM 42.1514 -78.0653 253° West 401 461 20,000 350 Level Cleveland Center
Sun 05:47:24 PM 42.1336 -78.2117 261° West 401 461 20,700 950 Climbing Cleveland Center
Sun 05:48:24 PM 42.1175 -78.3494 261° West 389 448 21,900 1,100 Climbing Cleveland Center
Sun 05:49:24 PM 42.1014 -78.4842 261° West 384 442 22,900 1,000 Climbing Cleveland Center
Sun 05:50:24 PM 42.0872 -78.6219 262° West 378 435 23,900 1,000 Climbing Cleveland Center
Sun 05:51:24 PM 42.0706 -78.7567 261° West 373 429 24,900 1,000 Climbing Cleveland Center
Sun 05:52:24 PM 42.0581 -78.8911 263° West 368 423 25,900 1,000 Climbing Cleveland Center
Sun 05:53:24 PM 42.0347 -79.0064 255° West 368 423 26,900 1,000 Climbing Cleveland Center
Sun 05:54:24 PM 42.0050 -79.1331 253° West 362 417 27,900 950 Climbing Cleveland Center
Sun 05:55:24 PM 41.9753 -79.2564 252° West 362 417 28,800 850 Climbing Cleveland Center
Sun 05:56:24 PM 41.9453 -79.3828 252° West 357 411 29,600 800 Climbing Cleveland Center
Sun 05:57:24 PM 41.9258 -79.5142 259° West 357 411 30,400 800 Climbing Cleveland Center
Sun 05:58:24 PM 41.9083 -79.6486 260° West 362 417 31,200 800 Climbing Cleveland Center
Sun 05:59:24 PM 41.8967 -79.7825 263° West 367 422 32,000 400 Climbing Cleveland Center
Sun 06:00:24 PM 41.8789 -79.9250 261° West 378 435 32,000  Level Cleveland Center
Sun 06:01:24 PM 41.8608 -80.0758 261° West 406 467 32,000  Level Cleveland Center
Sun 06:02:24 PM 41.8406 -80.2431 261° West 414 476 32,000  Level Cleveland Center
Sun 06:03:24 PM 41.8244 -80.4019 262° West 424 488 32,000  Level Cleveland Center
Sun 06:04:24 PM 41.8036 -80.5581 260° West 431 496 32,000  Level Cleveland Center
Sun 06:05:24 PM 41.7847 -80.7114 261° West 431 496 32,000  Level Cleveland Center
Sun 06:06:24 PM 41.7658 -80.8700 261° West 430 495 32,000  Level Cleveland Center
Sun 06:07:24 PM 41.7464 -81.0283 261° West 430 495 32,000  Level Cleveland Center
Sun 06:08:24 PM 41.7269 -81.1897 261° West 430 495 32,000  Level Cleveland Center
Sun 06:09:24 PM 41.6969 -81.3367 255° West 426 490 32,000  Level Cleveland Center
Sun 06:10:24 PM 41.6481 -81.4778 245° Southwest 420 483 32,000 50 Level Cleveland Center
Sun 06:11:24 PM 41.5989 -81.6217 245° Southwest 425 489 32,100 500 Climbing Cleveland Center
Sun 06:12:24 PM 41.5786 -81.7794 260° West 430 495 33,000 450 Climbing Cleveland Center
Sun 06:13:24 PM 41.5622 -81.9372 262° West 435 501 33,000  Level Cleveland Center
Sun 06:14:24 PM 41.5433 -82.1006 261° West 441 507 33,000 400 Level Cleveland Center
Sun 06:15:24 PM 41.5244 -82.2583 261° West 446 513 33,800 500 Climbing Cleveland Center
Sun 06:16:24 PM 41.5075 -82.4186 262° West 446 513 34,000 100 Climbing Cleveland Center
Sun 06:17:24 PM 41.4883 -82.5622 260° West 446 513 34,000  Level Cleveland Center
Sun 06:18:24 PM 41.4708 -82.7308 262° West 446 513 34,000  Level Cleveland Center
Sun 06:19:24 PM 41.4508 -82.8908 261° West 446 513 34,000  Level Cleveland Center
Sun 06:20:24 PM 41.4308 -83.0536 261° West 446 513 34,000  Level Cleveland Center
Sun 06:21:24 PM 41.4103 -83.2300 261° West 446 513 34,000  Level Cleveland Center
Sun 06:22:24 PM 41.3897 -83.3925 260° West 446 513 34,000  Level Cleveland Center
Sun 06:23:24 PM 41.3708 -83.5578 261° West 446 513 34,000  Level Cleveland Center
Sun 06:24:24 PM 41.3500 -83.7200 260° West 446 513 34,000  Level Cleveland Center
Sun 06:25:24 PM 41.3308 -83.8794 261° West 446 513 34,000  Level Cleveland Center
Sun 06:25:55 PM 41.3233 -83.9611 263° West 440 506 34,000  Level Chicago Center
Sun 06:26:57 PM 41.3069 -84.1153 262° West 438 504 34,000  Level Chicago Center
Sun 06:27:59 PM 41.3419 -84.2667 287° West 430 495 34,000  Level Chicago Center
Sun 06:29:01 PM 41.3761 -84.4172 287° West 427 491 34,000  Level Chicago Center
Sun 06:30:03 PM 41.4072 -84.5678 285° West 424 488 34,000  Level Chicago Center
Sun 06:31:06 PM 41.4422 -84.7475 285° West 420 483 34,000 -145 Level Chicago Center
Sun 06:32:07 PM 41.4717 -84.8978 285° West 420 483 33,700 -634 Descending Chicago Center
Sun 06:33:09 PM 41.4469 -85.0600 259° West 444 511 32,700 -968 Descending Chicago Center
Sun 06:34:11 PM 41.4100 -85.2231 253° West 453 521 31,700 -960 Descending Chicago Center
Sun 06:35:14 PM 41.3736 -85.3878 254° West 456 525 30,700 -1,728 Descending Chicago Center
Sun 06:36:16 PM 41.3364 -85.5544 253° West 463 533 28,100 -2,371 Descending Chicago Center
Sun 06:37:18 PM 41.2994 -85.7203 254° West 464 534 25,800 -1,500 Descending Chicago Center
Sun 06:38:20 PM 41.2825 -85.8856 262° West 451 519 25,000 -532 Descending Chicago Center
Sun 06:39:22 PM 41.3472 -86.0608 296° West 437 503 24,700 -1,548 Descending Chicago Center
Sun 06:40:24 PM 41.4075 -86.2019 300° West 437 503 21,800 -2,903 Descending Chicago Center
Sun 06:41:26 PM 41.4639 -86.3356 299° West 416 479 18,700 -2,806 Descending Chicago Center
Sun 06:42:28 PM 41.5181 -86.4628 300° West 398 458 16,000 -2,565 Descending Chicago Center
Sun 06:43:30 PM 41.5694 -86.5850 299° West 381 438 13,400 -1,887 Descending Chicago Center
Sun 06:44:32 PM 41.6244 -86.7150 300° West 363 418 12,100 -629 Descending Chicago Center
Sun 06:45:34 PM 41.6917 -86.7942 319° Northwest 342 394 12,100  Level Chicago Center
Sun 06:46:36 PM 41.7850 -86.8108 352° North 345 397 12,100 -48 Level Chicago Center
Sun 06:47:38 PM 41.8906 -86.8589 341° North 342 394 12,000 -672 Descending Chicago Center
Sun 06:48:41 PM 41.9319 -86.9739 296° West 346 398 10,700 -960 Descending Chicago Center
Sun 06:49:43 PM 41.9714 -87.0925 294° West 351 404 10,000 -387 Descending Chicago Center
Sun 06:50:45 PM 41.9828 -87.2142 277° West 335 386 9,900 -774 Descending Chicago Center
Sun 06:51:47 PM 41.9833 -87.3183 270° West 289 333 8,400 -1,403 Descending Chicago Center
Sun 06:52:49 PM 41.9831 -87.4378 270° West 271 312 7,000 -1,065 Descending Chicago Center
Sun 06:53:51 PM 41.9842 -87.5261 271° West 241 277 6,200 -1,113 Descending Chicago Center
Sun 06:54:53 PM 41.9833 -87.6053 269° West 219 252 4,700 -1,258 Descending Chicago Center
Sun 06:55:55 PM 41.9831 -87.6769 270° West 204 235 3,600 -919 Descending Chicago Center
Sun 06:56:57 PM 41.9844 -87.7386 272° West 186 214 2,800 -774 Descending Chicago Center

Login

Don't have an account? Register now (free) for customized features, flight alerts, and more!